Time;durP1;ratioP1;P1;durP2;ratioP2;P2;SDS_P1;SDS_P2;PMS_P1;PMS_P2;Temp;Humidity;BMP_temperature;BMP_pressure;BME280_temperature;BME280_humidity;BME280_pressure;Samples;Min_cycle;Max_cycle;Signal;HPM_P1;HPM_P2
2022/08/08 00:00:03;;;;;;;;;;;19.00;99.90;;;;;;5077991;28;20299;-79
2022/08/08 00:04:54;;;;;;;;;;;19.00;99.90;;;;;;5139166;22;20010;-86
2022/08/08 00:07:40;;;;;;;;;;;19.00;99.90;;;;;;5133079;27;20523;-87
2022/08/08 00:10:28;;;;;;;;;;;19.00;99.90;;;;;;5132631;27;19908;-86
2022/08/08 00:13:01;;;;;;;;;;;19.00;99.90;;;;;;5104775;27;19953;-86
2022/08/08 00:15:29;;;;;;;;;;;19.00;99.90;;;;;;5133289;27;19914;-86
2022/08/08 00:17:58;;;;;;;;;;;19.00;99.90;;;;;;5133034;27;19911;-85
2022/08/08 00:20:27;;;;;;;;;;;18.90;99.90;;;;;;5133308;27;19908;-86
2022/08/08 00:22:54;;;;;;;;;;;18.90;99.90;;;;;;5133301;27;20049;-86
2022/08/08 00:25:40;;;;;;;;;;;18.90;99.90;;;;;;5132934;27;19922;-85
2022/08/08 00:28:08;;;;;;;;;;;18.80;99.90;;;;;;5132410;27;19962;-86
2022/08/08 00:30:36;;;;;;;;;;;18.80;99.90;;;;;;5133044;27;19907;-87
2022/08/08 00:33:04;;;;;;;;;;;18.80;99.90;;;;;;5134365;27;19908;-87
2022/08/08 00:35:32;;;;;;;;;;;18.80;99.90;;;;;;5132783;27;19933;-87
2022/08/08 00:37:58;;;;;;;;;;;18.70;99.90;;;;;;5132715;27;19907;-87
2022/08/08 00:40:23;;;;;;;;;;;18.70;99.90;;;;;;5132909;27;19915;-86
2022/08/08 00:43:08;;;;;;;;;;;18.60;99.90;;;;;;5132846;27;19907;-87
2022/08/08 00:45:45;;;;;;;;;;;18.60;99.90;;;;;;5132384;27;19918;-87
2022/08/08 00:48:30;;;;;;;;;;;18.50;99.90;;;;;;5133169;27;20060;-87
2022/08/08 00:50:55;;;;;;;;;;;18.50;99.90;;;;;;5135077;27;19914;-87
2022/08/08 00:53:39;;;;;;;;;;;18.50;99.90;;;;;;5133194;27;19907;-87
2022/08/08 00:56:17;;;;;;;;;;;18.40;99.90;;;;;;5133103;27;20007;-88
2022/08/08 00:59:01;;;;;;;;;;;18.40;99.90;;;;;;5135065;27;19953;-87
2022/08/08 01:01:31;;;;;;;;;;;18.30;99.90;;;;;;5133664;27;19911;-87
2022/08/08 01:04:05;;;;;;;;;;;18.20;99.90;;;;;;5134906;27;20014;-87
2022/08/08 01:06:49;;;;;;;;;;;18.10;99.90;;;;;;5133654;27;19947;-87
2022/08/08 01:09:40;;;;;;;;;;;18.00;99.90;;;;;;5133598;27;19908;-87
2022/08/08 01:12:14;;;;;;;;;;;18.00;99.90;;;;;;5133970;27;19908;-87
2022/08/08 01:14:58;;;;;;;;;;;18.00;99.90;;;;;;5133510;27;19956;-87
2022/08/08 01:17:38;;;;;;;;;;;18.00;99.90;;;;;;5133162;28;19907;-87
2022/08/08 01:20:07;;;;;;;;;;;18.00;99.90;;;;;;5132934;28;19908;-86
2022/08/08 01:22:50;;;;;;;;;;;18.00;99.90;;;;;;5134218;27;19907;-87
2022/08/08 01:25:34;;;;;;;;;;;18.00;99.90;;;;;;5133830;27;19916;-87
2022/08/08 01:28:05;;;;;;;;;;;18.00;99.90;;;;;;5132627;28;20467;-86
2022/08/08 01:31:06;;;;;;;;;;;18.00;99.90;;;;;;5132849;28;20350;-86
2022/08/08 01:33:43;;;;;;;;;;;18.00;99.90;;;;;;5090627;28;20414;-86
2022/08/08 01:36:27;;;;;;;;;;;18.00;99.90;;;;;;5128538;27;20351;-86
2022/08/08 01:39:11;;;;;;;;;;;18.00;99.90;;;;;;5132898;28;20010;-87
2022/08/08 01:41:46;;;;;;;;;;;17.90;99.90;;;;;;5133081;28;19907;-87
2022/08/08 01:44:24;;;;;;;;;;;17.90;99.90;;;;;;5132651;28;20004;-87
2022/08/08 01:46:54;;;;;;;;;;;17.90;99.90;;;;;;5132755;28;20392;-87
2022/08/08 01:49:39;;;;;;;;;;;17.90;99.90;;;;;;5132927;28;19969;-86
2022/08/08 01:52:23;;;;;;;;;;;17.90;99.90;;;;;;5132567;28;19914;-87
2022/08/08 01:55:00;;;;;;;;;;;17.90;99.90;;;;;;5132782;28;20373;-86
2022/08/08 01:57:32;;;;;;;;;;;17.90;99.90;;;;;;5132605;27;19907;-87
2022/08/08 02:00:10;;;;;;;;;;;17.90;99.90;;;;;;5136740;27;19908;-86
2022/08/08 02:02:44;;;;;;;;;;;17.80;99.90;;;;;;5136536;27;19919;-86
2022/08/08 02:05:23;;;;;;;;;;;17.80;99.90;;;;;;5136342;27;20362;-86
2022/08/08 02:08:01;;;;;;;;;;;17.70;99.90;;;;;;5135847;27;19907;-87
2022/08/08 02:10:33;;;;;;;;;;;17.70;99.90;;;;;;5135823;27;20381;-88
2022/08/08 02:13:05;;;;;;;;;;;17.70;99.90;;;;;;5135517;27;19931;-87
2022/08/08 02:15:44;;;;;;;;;;;17.60;99.90;;;;;;5135572;27;19947;-88
2022/08/08 02:18:12;;;;;;;;;;;17.60;99.90;;;;;;5135284;27;19914;-86
2022/08/08 02:20:42;;;;;;;;;;;17.50;99.90;;;;;;5135443;27;19957;-88
2022/08/08 02:23:26;;;;;;;;;;;17.50;99.90;;;;;;5135125;27;19908;-86
2022/08/08 02:26:01;;;;;;;;;;;17.40;99.90;;;;;;5136179;27;19919;-88
2022/08/08 02:28:45;;;;;;;;;;;17.40;99.90;;;;;;5135051;27;20369;-87
2022/08/08 02:31:19;;;;;;;;;;;17.40;99.90;;;;;;5135174;27;19918;-87
2022/08/08 02:34:03;;;;;;;;;;;17.40;99.90;;;;;;5135079;27;20377;-87
2022/08/08 02:36:32;;;;;;;;;;;17.40;99.90;;;;;;5136091;27;19914;-88
2022/08/08 02:39:00;;;;;;;;;;;17.40;99.90;;;;;;5134931;27;19908;-87
2022/08/08 02:41:28;;;;;;;;;;;17.30;99.90;;;;;;5134873;27;19907;-87
2022/08/08 02:44:19;;;;;;;;;;;17.30;99.90;;;;;;5135876;27;19994;-87
2022/08/08 02:47:00;;;;;;;;;;;17.20;99.90;;;;;;5106816;27;19919;-87
2022/08/08 02:49:51;;;;;;;;;;;17.20;99.90;;;;;;5136145;27;19907;-87
2022/08/08 02:52:32;;;;;;;;;;;17.20;99.90;;;;;;5136006;27;19953;-87
2022/08/08 02:55:00;;;;;;;;;;;17.10;99.90;;;;;;5135977;27;19960;-90
2022/08/08 02:57:45;;;;;;;;;;;17.10;99.90;;;;;;5134007;27;20318;-87
2022/08/08 03:00:38;;;;;;;;;;;17.10;99.90;;;;;;5134642;27;19914;-87
2022/08/08 03:03:22;;;;;;;;;;;17.00;99.90;;;;;;5134500;27;19980;-88
2022/08/08 03:05:50;;;;;;;;;;;17.00;99.90;;;;;;5135364;27;19912;-87
2022/08/08 03:08:19;;;;;;;;;;;17.00;99.90;;;;;;5134424;27;19915;-87
2022/08/08 03:11:03;;;;;;;;;;;17.00;99.90;;;;;;5134534;27;20002;-87
2022/08/08 03:13:47;;;;;;;;;;;17.00;99.90;;;;;;5134373;27;20052;-87
2022/08/08 03:16:19;;;;;;;;;;;16.90;99.90;;;;;;5133976;27;19908;-86
2022/08/08 03:18:56;;;;;;;;;;;16.90;99.90;;;;;;5135646;27;19914;-87
2022/08/08 03:21:21;;;;;;;;;;;16.90;99.90;;;;;;5117191;27;20006;-87
2022/08/08 03:23:47;;;;;;;;;;;16.90;99.90;;;;;;5135119;27;20208;-87
2022/08/08 03:26:15;;;;;;;;;;;16.90;99.90;;;;;;5133742;27;20358;-87
2022/08/08 03:28:49;;;;;;;;;;;16.80;99.90;;;;;;5134070;27;19915;-87
2022/08/08 03:34:04;;;;;;;;;;;16.70;99.90;;;;;;5135333;27;20008;-87
2022/08/08 03:36:29;;;;;;;;;;;16.70;99.90;;;;;;5133766;27;19912;-86
2022/08/08 03:38:56;;;;;;;;;;;16.70;99.90;;;;;;5133846;27;19964;-87
2022/08/08 03:41:29;;;;;;;;;;;16.60;99.90;;;;;;5133921;27;19907;-87
2022/08/08 03:43:55;;;;;;;;;;;16.50;99.90;;;;;;5134951;27;19957;-88
2022/08/08 03:46:21;;;;;;;;;;;16.50;99.90;;;;;;5133424;27;19950;-87
2022/08/08 03:48:56;;;;;;;;;;;16.40;99.90;;;;;;5133756;27;20381;-87
2022/08/08 03:51:22;;;;;;;;;;;16.40;99.90;;;;;;5133809;27;19908;-87
2022/08/08 03:53:47;;;;;;;;;;;16.30;99.90;;;;;;5133526;27;19960;-87
2022/08/08 03:56:14;;;;;;;;;;;16.30;99.90;;;;;;5133378;27;19963;-88
2022/08/08 03:58:40;;;;;;;;;;;16.20;99.90;;;;;;5133524;27;19914;-87
2022/08/08 04:01:06;;;;;;;;;;;16.20;99.90;;;;;;5133420;27;19908;-87
2022/08/08 04:03:34;;;;;;;;;;;16.20;99.90;;;;;;5133063;27;19915;-87
2022/08/08 04:06:09;;;;;;;;;;;16.20;99.90;;;;;;5121763;27;19939;-88
2022/08/08 04:08:35;;;;;;;;;;;16.20;99.90;;;;;;5141066;27;19928;-86
2022/08/08 04:11:02;;;;;;;;;;;16.30;99.90;;;;;;5142336;27;19960;-87
2022/08/08 04:13:27;;;;;;;;;;;16.30;99.90;;;;;;5130149;28;20449;-87
2022/08/08 04:15:53;;;;;;;;;;;16.10;99.90;;;;;;5113996;28;19939;-88
2022/08/08 04:18:18;;;;;;;;;;;16.10;99.90;;;;;;5115338;28;20324;-87
2022/08/08 04:20:44;;;;;;;;;;;16.10;99.90;;;;;;5113413;28;20266;-88
2022/08/08 04:23:09;;;;;;;;;;;16.10;99.90;;;;;;5114124;28;19908;-87
2022/08/08 04:25:34;;;;;;;;;;;16.10;99.90;;;;;;5112103;28;19969;-86
2022/08/08 04:28:00;;;;;;;;;;;16.10;99.90;;;;;;5113494;27;19912;-87
2022/08/08 04:30:26;;;;;;;;;;;16.20;99.90;;;;;;5112343;28;19908;-87
2022/08/08 04:32:52;;;;;;;;;;;16.10;99.90;;;;;;5112272;28;19908;-86
2022/08/08 04:35:17;;;;;;;;;;;16.20;99.90;;;;;;5112225;28;19907;-86
2022/08/08 04:37:43;;;;;;;;;;;16.20;99.90;;;;;;5112098;28;20290;-88
2022/08/08 04:40:09;;;;;;;;;;;16.20;99.90;;;;;;5112369;28;19970;-88
2022/08/08 04:42:35;;;;;;;;;;;16.30;99.90;;;;;;5111968;28;19912;-87
2022/08/08 04:45:01;;;;;;;;;;;16.30;99.90;;;;;;5111987;28;19922;-88
2022/08/08 04:47:26;;;;;;;;;;;16.30;99.90;;;;;;5111875;28;19995;-87
2022/08/08 04:49:52;;;;;;;;;;;16.30;99.90;;;;;;5113349;28;20389;-87
2022/08/08 04:52:17;;;;;;;;;;;16.40;99.90;;;;;;5111806;28;19966;-87
2022/08/08 04:54:42;;;;;;;;;;;16.40;99.90;;;;;;5111955;28;19907;-87
2022/08/08 04:57:08;;;;;;;;;;;16.50;99.90;;;;;;5113075;28;19908;-86
2022/08/08 04:59:34;;;;;;;;;;;16.50;99.90;;;;;;5113110;28;19911;-87
2022/08/08 05:01:59;;;;;;;;;;;16.50;99.90;;;;;;5112017;28;20398;-86
2022/08/08 05:04:25;;;;;;;;;;;16.60;99.90;;;;;;5111410;28;19923;-88
2022/08/08 05:06:50;;;;;;;;;;;16.70;99.90;;;;;;5099792;28;19998;-86
2022/08/08 05:09:16;;;;;;;;;;;16.70;99.90;;;;;;5092701;28;19915;-89
2022/08/08 05:11:41;;;;;;;;;;;16.70;99.90;;;;;;5132472;27;19915;-88
2022/08/08 05:14:07;;;;;;;;;;;16.60;99.90;;;;;;5132260;27;19958;-87
2022/08/08 05:16:33;;;;;;;;;;;16.60;99.90;;;;;;5131754;27;19999;-88
2022/08/08 05:18:58;;;;;;;;;;;16.60;99.90;;;;;;5132331;28;20285;-88
2022/08/08 05:21:23;;;;;;;;;;;16.70;99.90;;;;;;5132204;28;20474;-88
2022/08/08 05:23:49;;;;;;;;;;;16.70;99.90;;;;;;5132128;28;19914;-87
2022/08/08 05:26:14;;;;;;;;;;;16.80;99.90;;;;;;5131766;28;20002;-88
2022/08/08 05:28:40;;;;;;;;;;;16.90;99.90;;;;;;5131740;28;19958;-88
2022/08/08 05:31:06;;;;;;;;;;;17.00;99.90;;;;;;5133073;27;19914;-89
2022/08/08 05:33:31;;;;;;;;;;;17.00;99.90;;;;;;5134347;27;19994;-88
2022/08/08 05:35:59;;;;;;;;;;;17.00;99.90;;;;;;5136049;27;20006;-87
2022/08/08 05:38:25;;;;;;;;;;;17.10;99.90;;;;;;5136121;27;19930;-87
2022/08/08 05:40:51;;;;;;;;;;;17.10;99.90;;;;;;5136310;27;19911;-87
2022/08/08 05:43:25;;;;;;;;;;;17.20;99.90;;;;;;5136065;27;19908;-87
2022/08/08 05:46:01;;;;;;;;;;;17.30;99.90;;;;;;5135959;27;19916;-88
2022/08/08 05:48:27;;;;;;;;;;;17.40;99.90;;;;;;5137639;27;19915;-87
2022/08/08 05:50:52;;;;;;;;;;;17.50;99.90;;;;;;5137458;27;19908;-86
2022/08/08 05:53:24;;;;;;;;;;;17.60;99.90;;;;;;5138831;27;19908;-86
2022/08/08 05:55:54;;;;;;;;;;;17.70;99.90;;;;;;5138646;27;19911;-87
2022/08/08 05:58:24;;;;;;;;;;;17.60;99.90;;;;;;5137150;27;19908;-86
2022/08/08 06:00:50;;;;;;;;;;;17.70;99.90;;;;;;5138409;27;19980;-86
2022/08/08 06:03:18;;;;;;;;;;;17.90;99.90;;;;;;5137161;27;19922;-86
2022/08/08 06:05:47;;;;;;;;;;;18.00;99.90;;;;;;5137326;27;19965;-86
2022/08/08 06:08:13;;;;;;;;;;;18.10;99.90;;;;;;5137098;27;19908;-86
2022/08/08 06:10:39;;;;;;;;;;;18.20;99.90;;;;;;5136640;27;20433;-87
2022/08/08 06:13:06;;;;;;;;;;;18.30;99.90;;;;;;5136251;27;19908;-86
2022/08/08 06:15:32;;;;;;;;;;;18.40;99.90;;;;;;5136284;27;19915;-87
2022/08/08 06:17:58;;;;;;;;;;;18.50;99.90;;;;;;5136450;27;20445;-86
2022/08/08 06:20:23;;;;;;;;;;;18.60;99.90;;;;;;5136344;27;19914;-86
2022/08/08 06:22:49;;;;;;;;;;;18.70;99.90;;;;;;5135885;27;19908;-86
2022/08/08 06:25:14;;;;;;;;;;;18.80;99.90;;;;;;5135849;27;19965;-87
2022/08/08 06:27:54;;;;;;;;;;;18.80;99.90;;;;;;5135607;27;19957;-86
2022/08/08 06:30:19;;;;;;;;;;;18.90;99.90;;;;;;5135557;27;19907;-86
2022/08/08 06:32:50;;;;;;;;;;;19.00;99.90;;;;;;5135469;27;19914;-86
2022/08/08 06:35:15;;;;;;;;;;;19.20;99.90;;;;;;5136109;27;20040;-86
2022/08/08 06:37:46;;;;;;;;;;;19.30;99.90;;;;;;5138230;27;19956;-86
2022/08/08 06:40:14;;;;;;;;;;;19.40;99.90;;;;;;5137358;27;19912;-87
2022/08/08 06:42:40;;;;;;;;;;;19.50;99.90;;;;;;5136660;27;20359;-86
2022/08/08 06:45:06;;;;;;;;;;;19.60;99.90;;;;;;5138817;27;20312;-87
2022/08/08 06:47:33;;;;;;;;;;;19.70;99.90;;;;;;5138243;27;19957;-87
2022/08/08 06:49:59;;;;;;;;;;;19.80;99.90;;;;;;5136399;27;20373;-85
2022/08/08 06:52:25;;;;;;;;;;;20.00;99.90;;;;;;5136187;27;19991;-87
2022/08/08 06:54:50;;;;;;;;;;;20.00;99.90;;;;;;5138245;27;20346;-87
2022/08/08 06:57:16;;;;;;;;;;;20.10;99.90;;;;;;5137726;27;19915;-85
2022/08/08 06:59:42;;;;;;;;;;;20.30;99.90;;;;;;5137481;27;19907;-87
2022/08/08 07:02:11;;;;;;;;;;;20.30;99.90;;;;;;5136040;27;19954;-87
2022/08/08 07:04:45;;;;;;;;;;;20.40;99.90;;;;;;5136308;27;20422;-87
2022/08/08 07:07:12;;;;;;;;;;;20.40;99.90;;;;;;5136572;27;19912;-87
2022/08/08 07:09:47;;;;;;;;;;;20.50;99.90;;;;;;5137670;27;19915;-85
2022/08/08 07:12:20;;;;;;;;;;;20.70;99.90;;;;;;5105561;27;19912;-87
2022/08/08 07:15:00;;;;;;;;;;;20.80;99.90;;;;;;5094344;28;19915;-86
2022/08/08 07:17:27;;;;;;;;;;;20.80;99.90;;;;;;5098544;27;19912;-88
2022/08/08 07:19:54;;;;;;;;;;;20.90;99.90;;;;;;5130051;27;19912;-86
2022/08/08 07:22:26;;;;;;;;;;;20.90;99.90;;;;;;5121999;28;19958;-87
2022/08/08 07:24:58;;;;;;;;;;;20.90;99.90;;;;;;5124740;28;19975;-87
2022/08/08 07:27:24;;;;;;;;;;;21.10;99.90;;;;;;5129500;27;19908;-87
2022/08/08 07:29:53;;;;;;;;;;;21.20;99.90;;;;;;5127015;28;19956;-88
2022/08/08 07:32:19;;;;;;;;;;;21.20;99.90;;;;;;5120783;28;19908;-88
2022/08/08 07:34:46;;;;;;;;;;;21.40;99.90;;;;;;5127798;28;19915;-88
2022/08/08 07:37:12;;;;;;;;;;;21.40;99.90;;;;;;5129285;28;19988;-88
2022/08/08 07:39:40;;;;;;;;;;;21.40;99.90;;;;;;5130336;28;19900;-89
2022/08/08 07:42:08;;;;;;;;;;;21.50;99.90;;;;;;5130056;28;19911;-88
2022/08/08 07:44:34;;;;;;;;;;;21.70;99.90;;;;;;5120685;28;19922;-85
2022/08/08 07:46:59;;;;;;;;;;;21.90;99.90;;;;;;5131030;28;19912;-88
2022/08/08 07:49:25;;;;;;;;;;;21.90;99.90;;;;;;5119705;28;19953;-87
2022/08/08 07:51:51;;;;;;;;;;;22.10;99.90;;;;;;5116221;28;20002;-88
2022/08/08 07:54:16;;;;;;;;;;;22.20;99.90;;;;;;5117353;28;19916;-88
2022/08/08 07:56:52;;;;;;;;;;;22.10;99.90;;;;;;5124367;28;19914;-87
2022/08/08 07:59:19;;;;;;;;;;;22.20;99.90;;;;;;5120488;28;19937;-87
2022/08/08 08:01:54;;;;;;;;;;;22.40;99.90;;;;;;5119581;28;19973;-87
2022/08/08 08:04:24;;;;;;;;;;;22.50;99.90;;;;;;5119541;28;19916;-88
2022/08/08 08:06:50;;;;;;;;;;;22.70;99.90;;;;;;5115495;28;19908;-88
2022/08/08 08:09:23;;;;;;;;;;;23.00;99.90;;;;;;5117239;28;19956;-89
2022/08/08 08:11:49;;;;;;;;;;;23.60;99.90;;;;;;5117674;28;19958;-86
2022/08/08 08:14:22;;;;;;;;;;;24.80;99.90;;;;;;5116676;28;19908;-88
2022/08/08 08:16:47;;;;;;;;;;;25.90;99.90;;;;;;5119208;28;19924;-88
2022/08/08 08:19:13;;;;;;;;;;;27.10;99.90;;;;;;5116540;28;19915;-88
2022/08/08 08:21:46;;;;;;;;;;;27.90;99.70;;;;;;5121545;28;19915;-88
2022/08/08 08:24:12;;;;;;;;;;;28.80;94.90;;;;;;5115719;28;19959;-88
2022/08/08 08:26:37;;;;;;;;;;;29.60;92.10;;;;;;5114818;28;19915;-89
2022/08/08 08:29:04;;;;;;;;;;;30.30;90.40;;;;;;5120355;28;20081;-88
2022/08/08 08:31:29;;;;;;;;;;;30.80;82.50;;;;;;5115707;28;20436;-88
2022/08/08 08:33:55;;;;;;;;;;;31.50;79.80;;;;;;5119572;28;19908;-85
2022/08/08 08:36:20;;;;;;;;;;;31.90;72.10;;;;;;5114724;28;20430;-88
2022/08/08 08:38:46;;;;;;;;;;;32.40;68.70;;;;;;5115434;28;20310;-89
2022/08/08 08:41:12;;;;;;;;;;;33.20;64.40;;;;;;5112640;28;19908;-89
2022/08/08 08:43:40;;;;;;;;;;;34.10;65.10;;;;;;5114172;28;20302;-89
2022/08/08 08:46:07;;;;;;;;;;;35.00;58.30;;;;;;5114527;28;20010;-89
2022/08/08 08:48:32;;;;;;;;;;;35.60;54.20;;;;;;5116456;28;19911;-87
2022/08/08 08:50:59;;;;;;;;;;;36.10;51.10;;;;;;5117857;28;19957;-88
2022/08/08 08:53:25;;;;;;;;;;;36.40;49.60;;;;;;5116115;28;20003;-89
2022/08/08 08:55:52;;;;;;;;;;;36.70;47.60;;;;;;5111837;28;19946;-90
2022/08/08 08:58:32;;;;;;;;;;;36.90;47.70;;;;;;5113202;28;19908;-88
2022/08/08 09:00:59;;;;;;;;;;;37.50;46.60;;;;;;5114539;28;19908;-90
2022/08/08 09:03:26;;;;;;;;;;;37.50;44.50;;;;;;5115100;28;19961;-89
2022/08/08 09:05:52;;;;;;;;;;;37.90;44.10;;;;;;5112854;28;19911;-90
2022/08/08 09:08:20;;;;;;;;;;;38.20;42.90;;;;;;5114095;28;19908;-89
2022/08/08 09:10:46;;;;;;;;;;;38.30;41.80;;;;;;5113040;28;20003;-89
2022/08/08 09:13:12;;;;;;;;;;;38.70;41.40;;;;;;5113961;28;20259;-89
2022/08/08 09:15:38;;;;;;;;;;;39.30;40.80;;;;;;5113009;28;19907;-89
2022/08/08 09:18:04;;;;;;;;;;;39.80;39.10;;;;;;5114421;28;19971;-88
2022/08/08 09:20:30;;;;;;;;;;;40.10;36.90;;;;;;5111803;28;19962;-89
2022/08/08 09:22:56;;;;;;;;;;;40.20;37.70;;;;;;5114243;28;19907;-90
2022/08/08 09:25:23;;;;;;;;;;;40.40;36.00;;;;;;5114345;28;19912;-89
2022/08/08 09:27:49;;;;;;;;;;;41.10;36.20;;;;;;5111708;28;19908;-89
2022/08/08 09:30:15;;;;;;;;;;;41.70;36.50;;;;;;5113435;28;19915;-89
2022/08/08 09:32:41;;;;;;;;;;;42.20;34.80;;;;;;5117803;28;19907;-87
2022/08/08 09:35:08;;;;;;;;;;;41.00;33.40;;;;;;5115790;28;19908;-88
2022/08/08 09:37:45;;;;;;;;;;;41.10;33.60;;;;;;5113483;28;19918;-88
2022/08/08 09:40:11;;;;;;;;;;;41.50;32.90;;;;;;5114265;28;19918;-89
2022/08/08 09:42:42;;;;;;;;;;;41.70;32.60;;;;;;5113111;28;19915;-87
2022/08/08 09:45:09;;;;;;;;;;;42.00;33.10;;;;;;5114045;28;19911;-90
2022/08/08 09:47:38;;;;;;;;;;;41.90;32.50;;;;;;5111675;28;19918;-89
2022/08/08 09:50:11;;;;;;;;;;;42.20;32.50;;;;;;5111572;28;19929;-89
2022/08/08 09:52:39;;;;;;;;;;;42.90;31.20;;;;;;5114194;28;19915;-90
2022/08/08 09:55:04;;;;;;;;;;;42.40;30.00;;;;;;5115823;28;19908;-88
2022/08/08 09:57:32;;;;;;;;;;;41.90;30.50;;;;;;5113124;28;19919;-89
2022/08/08 09:59:58;;;;;;;;;;;41.30;31.10;;;;;;5112960;28;20363;-89
2022/08/08 10:02:29;;;;;;;;;;;40.50;31.00;;;;;;5114471;28;19959;-90
2022/08/08 10:05:01;;;;;;;;;;;39.50;32.20;;;;;;5111305;28;19915;-90
2022/08/08 10:07:26;;;;;;;;;;;39.00;32.60;;;;;;5114304;28;19923;-89
2022/08/08 10:09:52;;;;;;;;;;;38.10;33.00;;;;;;5114579;28;19951;-87
2022/08/08 10:12:18;;;;;;;;;;;38.80;33.80;;;;;;5113331;28;19914;-88
2022/08/08 10:14:43;;;;;;;;;;;39.60;33.20;;;;;;5112900;28;19930;-90
2022/08/08 10:17:09;;;;;;;;;;;40.10;31.80;;;;;;5115377;28;19915;-90
2022/08/08 10:19:34;;;;;;;;;;;39.60;30.80;;;;;;5114214;28;19915;-91
2022/08/08 10:22:01;;;;;;;;;;;39.20;32.50;;;;;;5120817;28;20348;-90
2022/08/08 10:24:27;;;;;;;;;;;38.10;32.00;;;;;;5115336;28;19931;-91
2022/08/08 10:26:57;;;;;;;;;;;37.90;35.70;;;;;;5114744;28;19916;-89
2022/08/08 10:29:35;;;;;;;;;;;38.00;34.30;;;;;;5115347;28;19908;-90
2022/08/08 10:34:55;;;;;;;;;;;39.20;32.30;;;;;;5116835;28;19915;-90
2022/08/08 10:37:25;;;;;;;;;;;39.50;33.80;;;;;;5115940;28;20335;-89
2022/08/08 10:39:51;;;;;;;;;;;38.10;32.10;;;;;;5117802;28;20330;-88
2022/08/08 10:42:18;;;;;;;;;;;37.20;32.60;;;;;;5117676;28;20435;-88
2022/08/08 10:44:43;;;;;;;;;;;36.30;33.00;;;;;;5119470;28;19938;-89
2022/08/08 10:47:18;;;;;;;;;;;34.80;34.40;;;;;;5121553;28;19923;-87
2022/08/08 10:49:51;;;;;;;;;;;34.10;36.10;;;;;;5122205;28;19908;-88
2022/08/08 10:52:31;;;;;;;;;;;34.00;36.80;;;;;;5117294;28;19908;-89
2022/08/08 10:54:59;;;;;;;;;;;33.80;36.50;;;;;;5118709;28;20264;-88
2022/08/08 10:57:24;;;;;;;;;;;33.40;35.90;;;;;;5115281;28;19947;-90
2022/08/08 10:59:53;;;;;;;;;;;33.20;37.60;;;;;;5121152;28;19911;-87
2022/08/08 11:02:22;;;;;;;;;;;32.50;37.30;;;;;;5117769;28;19951;-88
2022/08/08 11:04:48;;;;;;;;;;;31.90;37.60;;;;;;5117218;28;20320;-89
2022/08/08 11:07:22;;;;;;;;;;;31.40;40.10;;;;;;5120686;27;19955;-89
2022/08/08 11:09:48;;;;;;;;;;;30.90;39.50;;;;;;5115034;28;20003;-91
2022/08/08 11:12:14;;;;;;;;;;;30.60;40.90;;;;;;5111511;27;20020;-87
2022/08/08 11:14:50;;;;;;;;;;;30.10;40.50;;;;;;5120883;27;19919;-91
2022/08/08 11:17:19;;;;;;;;;;;29.90;41.50;;;;;;5122075;27;20405;-90
2022/08/08 11:19:45;;;;;;;;;;;29.40;41.70;;;;;;5117054;27;20004;-91
2022/08/08 11:22:13;;;;;;;;;;;29.40;43.80;;;;;;5110044;27;19969;-92
2022/08/08 11:24:39;;;;;;;;;;;29.40;43.40;;;;;;5114229;27;19912;-91
2022/08/08 11:27:06;;;;;;;;;;;29.50;43.40;;;;;;5121140;27;19994;-88
2022/08/08 11:29:33;;;;;;;;;;;29.50;42.30;;;;;;5125314;27;19977;-91
2022/08/08 11:31:59;;;;;;;;;;;29.30;42.70;;;;;;5118185;28;19908;-91
2022/08/08 11:34:27;;;;;;;;;;;29.40;44.90;;;;;;5113600;28;19986;-91
2022/08/08 11:36:54;;;;;;;;;;;29.30;44.80;;;;;;5113273;28;20351;-91
2022/08/08 11:39:20;;;;;;;;;;;29.30;43.30;;;;;;5113452;28;19920;-90
2022/08/08 11:41:46;;;;;;;;;;;29.30;42.90;;;;;;5113748;28;20390;-89
2022/08/08 11:44:13;;;;;;;;;;;29.30;42.90;;;;;;5113267;28;19915;-91
2022/08/08 11:46:39;;;;;;;;;;;29.10;43.00;;;;;;5114212;28;19966;-90
2022/08/08 11:49:10;;;;;;;;;;;29.20;44.60;;;;;;5113435;28;19947;-90
2022/08/08 11:51:36;;;;;;;;;;;29.10;43.70;;;;;;5113376;28;19915;-89
2022/08/08 11:54:01;;;;;;;;;;;28.60;43.30;;;;;;5113287;28;20280;-90
2022/08/08 11:56:30;;;;;;;;;;;28.40;43.90;;;;;;5114101;28;19908;-89
2022/08/08 11:59:03;;;;;;;;;;;28.50;43.90;;;;;;5113260;28;19915;-90
2022/08/08 12:01:29;;;;;;;;;;;28.60;43.90;;;;;;5113444;28;19914;-90
2022/08/08 12:03:55;;;;;;;;;;;28.50;44.10;;;;;;5112930;28;20397;-89
2022/08/08 12:06:21;;;;;;;;;;;28.30;44.70;;;;;;5114146;28;19959;-90
2022/08/08 12:08:47;;;;;;;;;;;28.40;44.70;;;;;;5113204;28;19950;-89
2022/08/08 12:11:13;;;;;;;;;;;28.60;44.00;;;;;;5113120;28;19915;-90
2022/08/08 12:13:39;;;;;;;;;;;28.60;43.70;;;;;;5112865;28;19907;-90
2022/08/08 12:16:15;;;;;;;;;;;28.60;43.60;;;;;;5112473;28;19907;-89
2022/08/08 12:18:45;;;;;;;;;;;28.70;45.80;;;;;;5112923;28;19938;-89
2022/08/08 12:21:23;;;;;;;;;;;28.90;45.50;;;;;;5112588;28;19958;-90
2022/08/08 12:23:49;;;;;;;;;;;28.90;44.60;;;;;;5112907;28;19908;-91
2022/08/08 12:26:16;;;;;;;;;;;28.80;44.50;;;;;;5112182;28;19912;-90
2022/08/08 12:28:52;;;;;;;;;;;29.00;45.10;;;;;;5112788;28;19915;-89
2022/08/08 12:31:28;;;;;;;;;;;28.80;44.20;;;;;;5112520;28;19908;-89
2022/08/08 12:33:54;;;;;;;;;;;28.70;44.60;;;;;;5112637;28;19998;-91
2022/08/08 12:38:50;;;;;;;;;;;29.10;44.40;;;;;;5060486;28;19924;-85
2022/08/08 12:41:16;;;;;;;;;;;29.40;44.80;;;;;;5072494;28;20425;-83
2022/08/08 12:43:41;;;;;;;;;;;29.70;43.70;;;;;;5063524;28;19913;-83
2022/08/08 12:46:19;;;;;;;;;;;30.40;43.50;;;;;;5070169;28;19947;-83
2022/08/08 12:48:53;;;;;;;;;;;30.70;44.30;;;;;;5036270;28;20007;-84
2022/08/08 12:51:19;;;;;;;;;;;30.70;43.20;;;;;;5042867;28;19913;-84
2022/08/08 12:54:00;;;;;;;;;;;30.40;43.10;;;;;;5048656;28;19916;-81
2022/08/08 12:56:32;;;;;;;;;;;30.10;43.10;;;;;;5059615;28;19913;-82
2022/08/08 12:58:58;;;;;;;;;;;30.00;42.50;;;;;;5051493;28;19955;-82
2022/08/08 13:01:32;;;;;;;;;;;29.70;43.40;;;;;;5067827;28;19920;-82
2022/08/08 13:03:57;;;;;;;;;;;29.70;43.00;;;;;;5064863;28;19923;-80
2022/08/08 13:06:23;;;;;;;;;;;29.40;42.80;;;;;;5064528;28;19913;-82
2022/08/08 13:08:50;;;;;;;;;;;29.40;42.70;;;;;;5066024;28;19908;-82
2022/08/08 13:11:17;;;;;;;;;;;29.30;42.80;;;;;;5064901;28;19909;-81
2022/08/08 13:13:48;;;;;;;;;;;29.40;45.00;;;;;;5065445;28;19915;-82
2022/08/08 13:16:22;;;;;;;;;;;29.50;43.90;;;;;;5063236;28;19924;-82
2022/08/08 13:18:47;;;;;;;;;;;29.40;44.10;;;;;;5064122;28;19909;-81
2022/08/08 13:21:13;;;;;;;;;;;29.30;42.00;;;;;;5063717;28;19913;-82
2022/08/08 13:23:39;;;;;;;;;;;29.30;43.00;;;;;;5062859;28;19909;-82
2022/08/08 13:26:08;;;;;;;;;;;29.40;44.80;;;;;;5062152;28;19917;-81
2022/08/08 13:28:34;;;;;;;;;;;29.20;43.80;;;;;;5062210;28;20008;-81
2022/08/08 13:31:00;;;;;;;;;;;29.10;46.10;;;;;;5060981;28;20002;-82
2022/08/08 13:33:26;;;;;;;;;;;29.10;45.10;;;;;;5054826;28;19915;-82
2022/08/08 13:35:54;;;;;;;;;;;28.90;44.70;;;;;;5051445;28;19909;-81
2022/08/08 13:38:19;;;;;;;;;;;28.80;44.50;;;;;;5052896;28;20007;-81
2022/08/08 13:40:45;;;;;;;;;;;28.90;46.00;;;;;;5051527;28;19952;-81
2022/08/08 13:43:11;;;;;;;;;;;29.20;47.60;;;;;;5052038;28;20399;-81
2022/08/08 13:45:37;;;;;;;;;;;29.30;44.60;;;;;;5051288;28;19919;-83
2022/08/08 13:48:07;;;;;;;;;;;29.10;45.10;;;;;;5051693;28;19963;-82
2022/08/08 13:50:34;;;;;;;;;;;29.10;44.40;;;;;;5051174;28;20016;-84
2022/08/08 13:53:00;;;;;;;;;;;29.20;46.50;;;;;;5050385;28;20303;-83
2022/08/08 13:55:26;;;;;;;;;;;29.40;47.60;;;;;;5054820;28;19935;-83
2022/08/08 13:57:51;;;;;;;;;;;29.00;45.40;;;;;;5055469;28;19920;-83
2022/08/08 14:00:20;;;;;;;;;;;29.10;47.60;;;;;;5055134;28;20379;-82
2022/08/08 14:03:00;;;;;;;;;;;29.10;46.60;;;;;;5055448;28;20376;-81
2022/08/08 14:05:27;;;;;;;;;;;29.20;45.40;;;;;;5054874;28;19913;-81
2022/08/08 14:07:52;;;;;;;;;;;29.20;45.60;;;;;;5054866;28;20375;-82
2022/08/08 14:10:19;;;;;;;;;;;29.40;45.30;;;;;;5053848;28;20007;-82
2022/08/08 14:12:45;;;;;;;;;;;29.40;44.80;;;;;;5053872;28;19913;-82
2022/08/08 14:15:23;;;;;;;;;;;29.10;46.00;;;;;;5058127;28;19909;-82
2022/08/08 14:18:14;;;;;;;;;;;29.10;46.70;;;;;;5065595;28;19916;-82
2022/08/08 14:20:41;;;;;;;;;;;29.20;46.60;;;;;;5062366;28;19931;-82
2022/08/08 14:23:07;;;;;;;;;;;29.30;46.10;;;;;;5063440;28;19988;-82
2022/08/08 14:26:02;;;;;;;;;;;29.20;48.40;;;;;;5065274;28;19955;-83
2022/08/08 14:28:27;;;;;;;;;;;29.50;48.20;;;;;;5051596;28;19944;-82
2022/08/08 14:30:54;;;;;;;;;;;29.80;46.20;;;;;;5056037;28;20635;-85
2022/08/08 14:33:29;;;;;;;;;;;29.60;44.20;;;;;;5036855;28;19999;-85
2022/08/08 14:36:02;;;;;;;;;;;30.00;47.30;;;;;;5036771;28;19913;-86
2022/08/08 14:38:31;;;;;;;;;;;30.30;46.30;;;;;;5053691;28;19924;-86
2022/08/08 14:40:57;;;;;;;;;;;30.50;46.10;;;;;;5036831;28;19909;-85